sensor_id;sensor_type;location;lat;lon;timestamp;P1;durP1;ratioP1;P2;durP2;ratioP2
73264;SDS011;76371;51.008;14.088;2024-02-26T00:02:04;22.80;;;12.90;;
73264;SDS011;76371;51.008;14.088;2024-02-26T00:04:29;22.63;;;11.70;;
73264;SDS011;76371;51.008;14.088;2024-02-26T00:06:54;26.25;;;12.23;;
73264;SDS011;76371;51.008;14.088;2024-02-26T00:09:20;23.40;;;13.30;;
73264;SDS011;76371;51.008;14.088;2024-02-26T00:11:46;20.67;;;11.67;;
73264;SDS011;76371;51.008;14.088;2024-02-26T00:14:11;23.38;;;11.82;;
73264;SDS011;76371;51.008;14.088;2024-02-26T00:16:36;24.20;;;13.03;;
73264;SDS011;76371;51.008;14.088;2024-02-26T00:19:01;24.24;;;12.48;;
73264;SDS011;76371;51.008;14.088;2024-02-26T00:21:26;34.00;;;13.50;;
73264;SDS011;76371;51.008;14.088;2024-02-26T00:23:52;29.24;;;12.00;;
73264;SDS011;76371;51.008;14.088;2024-02-26T00:26:18;20.53;;;11.13;;
73264;SDS011;76371;51.008;14.088;2024-02-26T00:28:43;24.47;;;11.67;;
73264;SDS011;76371;51.008;14.088;2024-02-26T00:31:08;19.17;;;11.20;;
73264;SDS011;76371;51.008;14.088;2024-02-26T00:33:33;22.16;;;10.18;;
73264;SDS011;76371;51.008;14.088;2024-02-26T00:35:58;20.34;;;11.16;;
73264;SDS011;76371;51.008;14.088;2024-02-26T00:38:24;23.02;;;12.95;;
73264;SDS011;76371;51.008;14.088;2024-02-26T00:40:49;30.14;;;13.76;;
73264;SDS011;76371;51.008;14.088;2024-02-26T00:43:14;27.30;;;12.80;;
73264;SDS011;76371;51.008;14.088;2024-02-26T00:45:39;23.34;;;12.14;;
73264;SDS011;76371;51.008;14.088;2024-02-26T00:48:04;19.43;;;10.97;;
73264;SDS011;76371;51.008;14.088;2024-02-26T00:50:36;22.57;;;12.67;;
73264;SDS011;76371;51.008;14.088;2024-02-26T00:53:01;21.10;;;10.63;;
73264;SDS011;76371;51.008;14.088;2024-02-26T00:55:26;24.63;;;11.67;;
73264;SDS011;76371;51.008;14.088;2024-02-26T00:57:51;19.53;;;11.43;;
73264;SDS011;76371;51.008;14.088;2024-02-26T01:00:17;21.33;;;11.53;;
73264;SDS011;76371;51.008;14.088;2024-02-26T01:02:42;23.27;;;11.47;;
73264;SDS011;76371;51.008;14.088;2024-02-26T01:05:08;25.53;;;11.30;;
73264;SDS011;76371;51.008;14.088;2024-02-26T01:07:36;18.55;;;10.98;;
73264;SDS011;76371;51.008;14.088;2024-02-26T01:10:04;19.40;;;11.00;;
73264;SDS011;76371;51.008;14.088;2024-02-26T01:12:30;20.33;;;9.63;;
73264;SDS011;76371;51.008;14.088;2024-02-26T01:14:55;20.60;;;10.43;;
73264;SDS011;76371;51.008;14.088;2024-02-26T01:17:21;23.98;;;12.22;;
73264;SDS011;76371;51.008;14.088;2024-02-26T01:19:46;17.82;;;9.26;;
73264;SDS011;76371;51.008;14.088;2024-02-26T01:22:11;17.90;;;9.57;;
73264;SDS011;76371;51.008;14.088;2024-02-26T01:24:36;19.47;;;9.73;;
73264;SDS011;76371;51.008;14.088;2024-02-26T01:27:02;17.77;;;9.67;;
73264;SDS011;76371;51.008;14.088;2024-02-26T01:29:27;15.45;;;9.25;;
73264;SDS011;76371;51.008;14.088;2024-02-26T01:31:52;13.66;;;8.02;;
73264;SDS011;76371;51.008;14.088;2024-02-26T01:34:17;19.66;;;10.38;;
73264;SDS011;76371;51.008;14.088;2024-02-26T01:36:43;21.03;;;10.53;;
73264;SDS011;76371;51.008;14.088;2024-02-26T01:39:08;22.20;;;9.33;;
73264;SDS011;76371;51.008;14.088;2024-02-26T01:41:36;17.33;;;10.23;;
73264;SDS011;76371;51.008;14.088;2024-02-26T01:44:01;20.24;;;9.40;;
73264;SDS011;76371;51.008;14.088;2024-02-26T01:46:27;17.70;;;9.05;;
73264;SDS011;76371;51.008;14.088;2024-02-26T01:48:53;20.33;;;9.60;;
73264;SDS011;76371;51.008;14.088;2024-02-26T01:51:18;19.73;;;9.40;;
73264;SDS011;76371;51.008;14.088;2024-02-26T01:53:43;14.97;;;8.10;;
73264;SDS011;76371;51.008;14.088;2024-02-26T01:56:09;17.20;;;9.20;;
73264;SDS011;76371;51.008;14.088;2024-02-26T01:58:34;14.77;;;7.53;;
73264;SDS011;76371;51.008;14.088;2024-02-26T02:01:00;14.03;;;7.47;;
73264;SDS011;76371;51.008;14.088;2024-02-26T02:03:26;13.77;;;7.83;;
73264;SDS011;76371;51.008;14.088;2024-02-26T02:05:51;15.23;;;9.57;;
73264;SDS011;76371;51.008;14.088;2024-02-26T02:08:16;17.40;;;8.97;;
73264;SDS011;76371;51.008;14.088;2024-02-26T02:10:41;16.82;;;7.96;;
73264;SDS011;76371;51.008;14.088;2024-02-26T02:13:07;11.20;;;7.67;;
73264;SDS011;76371;51.008;14.088;2024-02-26T02:15:32;16.62;;;8.44;;
73264;SDS011;76371;51.008;14.088;2024-02-26T02:17:57;12.43;;;7.60;;
73264;SDS011;76371;51.008;14.088;2024-02-26T02:20:40;17.97;;;8.53;;
73264;SDS011;76371;51.008;14.088;2024-02-26T02:23:06;17.30;;;8.18;;
73264;SDS011;76371;51.008;14.088;2024-02-26T02:25:31;18.10;;;7.76;;
73264;SDS011;76371;51.008;14.088;2024-02-26T02:27:56;16.93;;;8.00;;
73264;SDS011;76371;51.008;14.088;2024-02-26T02:30:25;13.70;;;7.83;;
73264;SDS011;76371;51.008;14.088;2024-02-26T02:32:51;16.77;;;8.77;;
73264;SDS011;76371;51.008;14.088;2024-02-26T02:35:17;13.60;;;7.63;;
73264;SDS011;76371;51.008;14.088;2024-02-26T02:37:42;19.50;;;8.80;;
73264;SDS011;76371;51.008;14.088;2024-02-26T02:40:07;14.58;;;8.28;;
73264;SDS011;76371;51.008;14.088;2024-02-26T02:42:38;15.03;;;7.77;;
73264;SDS011;76371;51.008;14.088;2024-02-26T02:45:04;16.13;;;7.67;;
73264;SDS011;76371;51.008;14.088;2024-02-26T02:47:29;15.53;;;6.93;;
73264;SDS011;76371;51.008;14.088;2024-02-26T02:49:54;15.00;;;7.48;;
73264;SDS011;76371;51.008;14.088;2024-02-26T02:52:20;14.00;;;7.60;;
73264;SDS011;76371;51.008;14.088;2024-02-26T02:54:45;13.57;;;7.57;;
73264;SDS011;76371;51.008;14.088;2024-02-26T02:57:11;11.93;;;7.17;;
73264;SDS011;76371;51.008;14.088;2024-02-26T02:59:37;15.00;;;7.23;;
73264;SDS011;76371;51.008;14.088;2024-02-26T03:02:02;15.70;;;7.40;;
73264;SDS011;76371;51.008;14.088;2024-02-26T03:04:27;12.10;;;7.07;;
73264;SDS011;76371;51.008;14.088;2024-02-26T03:06:54;13.07;;;6.90;;
73264;SDS011;76371;51.008;14.088;2024-02-26T03:09:19;8.88;;;5.94;;
73264;SDS011;76371;51.008;14.088;2024-02-26T03:11:44;13.00;;;6.44;;
73264;SDS011;76371;51.008;14.088;2024-02-26T03:14:09;12.33;;;6.13;;
73264;SDS011;76371;51.008;14.088;2024-02-26T03:16:34;11.87;;;6.90;;
73264;SDS011;76371;51.008;14.088;2024-02-26T03:19:00;12.30;;;6.33;;
73264;SDS011;76371;51.008;14.088;2024-02-26T03:21:25;10.27;;;6.17;;
73264;SDS011;76371;51.008;14.088;2024-02-26T03:23:50;16.53;;;6.90;;
73264;SDS011;76371;51.008;14.088;2024-02-26T03:26:16;11.60;;;6.30;;
73264;SDS011;76371;51.008;14.088;2024-02-26T03:28:41;13.27;;;5.67;;
73264;SDS011;76371;51.008;14.088;2024-02-26T03:31:06;11.00;;;6.53;;
73264;SDS011;76371;51.008;14.088;2024-02-26T03:33:31;11.40;;;5.70;;
73264;SDS011;76371;51.008;14.088;2024-02-26T03:35:56;9.06;;;5.30;;
73264;SDS011;76371;51.008;14.088;2024-02-26T03:38:21;12.08;;;6.40;;
73264;SDS011;76371;51.008;14.088;2024-02-26T03:40:47;10.03;;;6.17;;
73264;SDS011;76371;51.008;14.088;2024-02-26T03:43:12;12.47;;;6.57;;
73264;SDS011;76371;51.008;14.088;2024-02-26T03:45:37;15.93;;;6.70;;
73264;SDS011;76371;51.008;14.088;2024-02-26T03:48:03;14.20;;;6.83;;
73264;SDS011;76371;51.008;14.088;2024-02-26T03:50:28;16.53;;;7.30;;
73264;SDS011;76371;51.008;14.088;2024-02-26T03:52:53;11.83;;;6.67;;
73264;SDS011;76371;51.008;14.088;2024-02-26T03:55:19;11.30;;;6.30;;
73264;SDS011;76371;51.008;14.088;2024-02-26T03:57:49;13.90;;;6.50;;
73264;SDS011;76371;51.008;14.088;2024-02-26T04:00:14;8.40;;;5.23;;
73264;SDS011;76371;51.008;14.088;2024-02-26T04:02:40;12.07;;;5.90;;
73264;SDS011;76371;51.008;14.088;2024-02-26T04:05:05;9.38;;;5.43;;
73264;SDS011;76371;51.008;14.088;2024-02-26T04:07:33;13.37;;;6.13;;
73264;SDS011;76371;51.008;14.088;2024-02-26T04:09:59;15.86;;;5.88;;
73264;SDS011;76371;51.008;14.088;2024-02-26T04:12:24;11.97;;;5.03;;
73264;SDS011;76371;51.008;14.088;2024-02-26T04:14:49;9.44;;;5.18;;
73264;SDS011;76371;51.008;14.088;2024-02-26T04:17:14;11.63;;;5.23;;
73264;SDS011;76371;51.008;14.088;2024-02-26T04:19:39;9.00;;;5.22;;
73264;SDS011;76371;51.008;14.088;2024-02-26T04:22:04;10.10;;;5.46;;
73264;SDS011;76371;51.008;14.088;2024-02-26T04:24:30;9.37;;;5.53;;
73264;SDS011;76371;51.008;14.088;2024-02-26T04:26:55;8.57;;;5.30;;
73264;SDS011;76371;51.008;14.088;2024-02-26T04:29:20;11.18;;;5.82;;
73264;SDS011;76371;51.008;14.088;2024-02-26T04:31:45;11.52;;;5.42;;
73264;SDS011;76371;51.008;14.088;2024-02-26T04:34:11;11.83;;;5.77;;
73264;SDS011;76371;51.008;14.088;2024-02-26T04:36:36;10.63;;;5.57;;
73264;SDS011;76371;51.008;14.088;2024-02-26T04:39:02;10.07;;;5.40;;
73264;SDS011;76371;51.008;14.088;2024-02-26T04:41:27;11.30;;;5.57;;
73264;SDS011;76371;51.008;14.088;2024-02-26T04:43:53;13.07;;;5.93;;
73264;SDS011;76371;51.008;14.088;2024-02-26T04:46:18;14.64;;;6.26;;
73264;SDS011;76371;51.008;14.088;2024-02-26T04:48:43;17.73;;;7.00;;
73264;SDS011;76371;51.008;14.088;2024-02-26T04:51:10;11.93;;;6.67;;
73264;SDS011;76371;51.008;14.088;2024-02-26T04:53:35;14.02;;;4.52;;
73264;SDS011;76371;51.008;14.088;2024-02-26T04:56:01;14.33;;;6.23;;
73264;SDS011;76371;51.008;14.088;2024-02-26T04:58:26;13.40;;;6.70;;
73264;SDS011;76371;51.008;14.088;2024-02-26T05:00:51;12.06;;;5.64;;
73264;SDS011;76371;51.008;14.088;2024-02-26T05:03:16;16.73;;;6.03;;
73264;SDS011;76371;51.008;14.088;2024-02-26T05:05:42;15.40;;;6.67;;
73264;SDS011;76371;51.008;14.088;2024-02-26T05:08:07;10.73;;;5.67;;
73264;SDS011;76371;51.008;14.088;2024-02-26T05:10:33;10.67;;;5.63;;
73264;SDS011;76371;51.008;14.088;2024-02-26T05:12:58;15.53;;;7.10;;
73264;SDS011;76371;51.008;14.088;2024-02-26T05:15:24;18.10;;;6.57;;
73264;SDS011;76371;51.008;14.088;2024-02-26T05:17:49;14.55;;;5.53;;
73264;SDS011;76371;51.008;14.088;2024-02-26T05:20:14;8.88;;;5.28;;
73264;SDS011;76371;51.008;14.088;2024-02-26T05:22:39;13.47;;;5.20;;
73264;SDS011;76371;51.008;14.088;2024-02-26T05:25:04;13.40;;;7.07;;
73264;SDS011;76371;51.008;14.088;2024-02-26T05:27:30;10.03;;;5.97;;
73264;SDS011;76371;51.008;14.088;2024-02-26T05:29:55;12.00;;;4.93;;
73264;SDS011;76371;51.008;14.088;2024-02-26T05:32:20;10.77;;;5.17;;
73264;SDS011;76371;51.008;14.088;2024-02-26T05:34:45;8.28;;;4.60;;
73264;SDS011;76371;51.008;14.088;2024-02-26T05:37:10;10.17;;;5.10;;
73264;SDS011;76371;51.008;14.088;2024-02-26T05:39:36;10.93;;;5.80;;
73264;SDS011;76371;51.008;14.088;2024-02-26T05:42:01;15.93;;;6.23;;
73264;SDS011;76371;51.008;14.088;2024-02-26T05:44:26;9.10;;;5.57;;
73264;SDS011;76371;51.008;14.088;2024-02-26T05:46:52;12.90;;;7.03;;
73264;SDS011;76371;51.008;14.088;2024-02-26T05:49:18;10.83;;;6.17;;
73264;SDS011;76371;51.008;14.088;2024-02-26T05:51:43;12.50;;;6.20;;
73264;SDS011;76371;51.008;14.088;2024-02-26T05:54:08;10.90;;;6.45;;
73264;SDS011;76371;51.008;14.088;2024-02-26T05:56:34;9.13;;;5.70;;
73264;SDS011;76371;51.008;14.088;2024-02-26T05:59:00;10.68;;;5.32;;
73264;SDS011;76371;51.008;14.088;2024-02-26T06:01:25;11.50;;;6.03;;
73264;SDS011;76371;51.008;14.088;2024-02-26T06:03:50;15.13;;;5.70;;
73264;SDS011;76371;51.008;14.088;2024-02-26T06:06:16;8.70;;;5.07;;
73264;SDS011;76371;51.008;14.088;2024-02-26T06:08:41;8.53;;;5.43;;
73264;SDS011;76371;51.008;14.088;2024-02-26T06:11:07;9.34;;;4.94;;
73264;SDS011;76371;51.008;14.088;2024-02-26T06:13:32;11.83;;;5.67;;
73264;SDS011;76371;51.008;14.088;2024-02-26T06:15:57;14.33;;;5.53;;
73264;SDS011;76371;51.008;14.088;2024-02-26T06:18:22;8.54;;;5.26;;
73264;SDS011;76371;51.008;14.088;2024-02-26T06:20:47;17.42;;;5.24;;
73264;SDS011;76371;51.008;14.088;2024-02-26T06:23:13;10.07;;;5.63;;
73264;SDS011;76371;51.008;14.088;2024-02-26T06:25:38;15.27;;;6.33;;
73264;SDS011;76371;51.008;14.088;2024-02-26T06:28:03;12.84;;;6.44;;
73264;SDS011;76371;51.008;14.088;2024-02-26T06:30:29;8.13;;;4.70;;
73264;SDS011;76371;51.008;14.088;2024-02-26T06:32:54;10.93;;;5.22;;
73264;SDS011;76371;51.008;14.088;2024-02-26T06:35:19;10.38;;;5.36;;
73264;SDS011;76371;51.008;14.088;2024-02-26T06:37:45;10.00;;;5.53;;
73264;SDS011;76371;51.008;14.088;2024-02-26T06:40:10;11.23;;;5.20;;
73264;SDS011;76371;51.008;14.088;2024-02-26T06:42:35;11.57;;;5.77;;
73264;SDS011;76371;51.008;14.088;2024-02-26T06:45:01;10.07;;;5.50;;
73264;SDS011;76371;51.008;14.088;2024-02-26T06:47:26;11.53;;;6.17;;
73264;SDS011;76371;51.008;14.088;2024-02-26T06:49:51;9.87;;;5.07;;
73264;SDS011;76371;51.008;14.088;2024-02-26T06:52:16;10.77;;;5.07;;
73264;SDS011;76371;51.008;14.088;2024-02-26T06:54:43;11.07;;;5.53;;
73264;SDS011;76371;51.008;14.088;2024-02-26T06:57:09;10.82;;;5.35;;
73264;SDS011;76371;51.008;14.088;2024-02-26T06:59:36;10.10;;;5.88;;
73264;SDS011;76371;51.008;14.088;2024-02-26T07:02:03;7.03;;;4.55;;
73264;SDS011;76371;51.008;14.088;2024-02-26T07:04:28;14.05;;;4.63;;
73264;SDS011;76371;51.008;14.088;2024-02-26T07:06:53;9.73;;;6.00;;
73264;SDS011;76371;51.008;14.088;2024-02-26T07:09:19;7.40;;;4.82;;
73264;SDS011;76371;51.008;14.088;2024-02-26T07:11:44;10.05;;;5.40;;
73264;SDS011;76371;51.008;14.088;2024-02-26T07:14:10;13.55;;;7.15;;
73264;SDS011;76371;51.008;14.088;2024-02-26T07:16:35;8.20;;;5.28;;
73264;SDS011;76371;51.008;14.088;2024-02-26T07:19:01;11.52;;;4.45;;
73264;SDS011;76371;51.008;14.088;2024-02-26T07:21:26;9.48;;;4.15;;
73264;SDS011;76371;51.008;14.088;2024-02-26T07:23:52;7.13;;;4.13;;
73264;SDS011;76371;51.008;14.088;2024-02-26T07:26:18;8.10;;;3.65;;
73264;SDS011;76371;51.008;14.088;2024-02-26T07:28:44;6.68;;;3.60;;
73264;SDS011;76371;51.008;14.088;2024-02-26T07:31:10;6.00;;;3.70;;
73264;SDS011;76371;51.008;14.088;2024-02-26T07:33:35;7.32;;;3.70;;
73264;SDS011;76371;51.008;14.088;2024-02-26T07:36:00;5.82;;;3.45;;
73264;SDS011;76371;51.008;14.088;2024-02-26T07:38:26;7.32;;;3.83;;
73264;SDS011;76371;51.008;14.088;2024-02-26T07:40:51;6.70;;;3.70;;
73264;SDS011;76371;51.008;14.088;2024-02-26T07:43:16;12.40;;;3.97;;
73264;SDS011;76371;51.008;14.088;2024-02-26T07:45:47;7.40;;;4.25;;
73264;SDS011;76371;51.008;14.088;2024-02-26T07:48:15;7.63;;;4.45;;
73264;SDS011;76371;51.008;14.088;2024-02-26T07:50:40;10.82;;;5.13;;
73264;SDS011;76371;51.008;14.088;2024-02-26T07:53:09;8.10;;;4.45;;
73264;SDS011;76371;51.008;14.088;2024-02-26T07:55:34;8.70;;;4.68;;
73264;SDS011;76371;51.008;14.088;2024-02-26T07:57:59;12.75;;;6.30;;
73264;SDS011;76371;51.008;14.088;2024-02-26T08:00:25;10.85;;;5.13;;
73264;SDS011;76371;51.008;14.088;2024-02-26T08:02:56;8.85;;;4.97;;
73264;SDS011;76371;51.008;14.088;2024-02-26T08:05:22;9.48;;;4.80;;
73264;SDS011;76371;51.008;14.088;2024-02-26T08:07:50;12.45;;;5.22;;
73264;SDS011;76371;51.008;14.088;2024-02-26T08:10:15;9.73;;;5.68;;
73264;SDS011;76371;51.008;14.088;2024-02-26T08:12:40;9.27;;;5.53;;
73264;SDS011;76371;51.008;14.088;2024-02-26T08:15:06;8.63;;;5.18;;
73264;SDS011;76371;51.008;14.088;2024-02-26T08:17:31;10.27;;;6.18;;
73264;SDS011;76371;51.008;14.088;2024-02-26T08:19:57;10.02;;;5.88;;
73264;SDS011;76371;51.008;14.088;2024-02-26T08:22:23;9.05;;;6.10;;
73264;SDS011;76371;51.008;14.088;2024-02-26T08:24:48;8.63;;;5.67;;
73264;SDS011;76371;51.008;14.088;2024-02-26T08:27:13;10.30;;;6.13;;
73264;SDS011;76371;51.008;14.088;2024-02-26T08:29:51;10.40;;;6.53;;
73264;SDS011;76371;51.008;14.088;2024-02-26T08:32:16;10.90;;;6.25;;
73264;SDS011;76371;51.008;14.088;2024-02-26T08:34:41;10.48;;;6.05;;
73264;SDS011;76371;51.008;14.088;2024-02-26T08:37:07;9.63;;;6.22;;
73264;SDS011;76371;51.008;14.088;2024-02-26T08:39:32;10.32;;;6.15;;
73264;SDS011;76371;51.008;14.088;2024-02-26T08:41:57;10.93;;;6.27;;
73264;SDS011;76371;51.008;14.088;2024-02-26T08:44:23;10.88;;;6.60;;
73264;SDS011;76371;51.008;14.088;2024-02-26T08:46:51;12.93;;;6.78;;
73264;SDS011;76371;51.008;14.088;2024-02-26T08:49:16;10.30;;;5.93;;
73264;SDS011;76371;51.008;14.088;2024-02-26T08:51:44;11.90;;;6.90;;
73264;SDS011;76371;51.008;14.088;2024-02-26T08:54:10;12.23;;;6.50;;
73264;SDS011;76371;51.008;14.088;2024-02-26T08:56:35;11.60;;;6.22;;
73264;SDS011;76371;51.008;14.088;2024-02-26T08:59:01;13.40;;;7.20;;
73264;SDS011;76371;51.008;14.088;2024-02-26T09:01:29;8.77;;;6.50;;
73264;SDS011;76371;51.008;14.088;2024-02-26T09:03:54;12.07;;;6.75;;
73264;SDS011;76371;51.008;14.088;2024-02-26T09:06:19;10.23;;;5.40;;
73264;SDS011;76371;51.008;14.088;2024-02-26T09:08:47;13.57;;;6.88;;
73264;SDS011;76371;51.008;14.088;2024-02-26T09:11:18;9.65;;;5.65;;
73264;SDS011;76371;51.008;14.088;2024-02-26T09:13:43;9.18;;;6.07;;
73264;SDS011;76371;51.008;14.088;2024-02-26T09:16:09;13.77;;;7.17;;
73264;SDS011;76371;51.008;14.088;2024-02-26T09:18:34;12.82;;;7.20;;
73264;SDS011;76371;51.008;14.088;2024-02-26T09:21:03;13.05;;;6.78;;
73264;SDS011;76371;51.008;14.088;2024-02-26T09:23:29;12.13;;;6.15;;
73264;SDS011;76371;51.008;14.088;2024-02-26T09:25:55;13.13;;;7.53;;
73264;SDS011;76371;51.008;14.088;2024-02-26T09:28:21;9.13;;;6.40;;
73264;SDS011;76371;51.008;14.088;2024-02-26T09:30:46;9.68;;;6.30;;
73264;SDS011;76371;51.008;14.088;2024-02-26T09:33:13;9.98;;;6.45;;
73264;SDS011;76371;51.008;14.088;2024-02-26T09:35:39;12.30;;;6.22;;
73264;SDS011;76371;51.008;14.088;2024-02-26T09:38:04;12.50;;;5.97;;
73264;SDS011;76371;51.008;14.088;2024-02-26T09:40:30;11.27;;;5.97;;
73264;SDS011;76371;51.008;14.088;2024-02-26T09:42:59;8.85;;;6.75;;
73264;SDS011;76371;51.008;14.088;2024-02-26T09:45:27;11.55;;;6.55;;
73264;SDS011;76371;51.008;14.088;2024-02-26T09:47:55;10.25;;;6.35;;
73264;SDS011;76371;51.008;14.088;2024-02-26T09:50:20;10.27;;;6.32;;
73264;SDS011;76371;51.008;14.088;2024-02-26T09:52:48;7.78;;;5.32;;
73264;SDS011;76371;51.008;14.088;2024-02-26T09:55:18;10.20;;;6.03;;
73264;SDS011;76371;51.008;14.088;2024-02-26T09:57:45;8.95;;;6.10;;
73264;SDS011;76371;51.008;14.088;2024-02-26T10:00:14;10.35;;;6.85;;
73264;SDS011;76371;51.008;14.088;2024-02-26T10:02:47;11.18;;;6.95;;
73264;SDS011;76371;51.008;14.088;2024-02-26T10:05:16;14.40;;;6.85;;
73264;SDS011;76371;51.008;14.088;2024-02-26T10:07:42;8.73;;;6.18;;
73264;SDS011;76371;51.008;14.088;2024-02-26T10:10:09;8.85;;;5.75;;
73264;SDS011;76371;51.008;14.088;2024-02-26T10:12:34;9.15;;;5.30;;
73264;SDS011;76371;51.008;14.088;2024-02-26T10:15:05;10.70;;;5.75;;
73264;SDS011;76371;51.008;14.088;2024-02-26T10:17:31;11.65;;;5.78;;
73264;SDS011;76371;51.008;14.088;2024-02-26T10:20:10;9.32;;;5.93;;
73264;SDS011;76371;51.008;14.088;2024-02-26T10:22:36;11.00;;;6.43;;
73264;SDS011;76371;51.008;14.088;2024-02-26T10:25:02;10.50;;;6.30;;
73264;SDS011;76371;51.008;14.088;2024-02-26T10:27:28;9.18;;;5.85;;
73264;SDS011;76371;51.008;14.088;2024-02-26T10:29:56;11.70;;;6.88;;
73264;SDS011;76371;51.008;14.088;2024-02-26T10:32:21;9.80;;;6.13;;
73264;SDS011;76371;51.008;14.088;2024-02-26T10:34:46;10.82;;;5.57;;
73264;SDS011;76371;51.008;14.088;2024-02-26T10:37:13;11.90;;;5.88;;
73264;SDS011;76371;51.008;14.088;2024-02-26T10:39:46;8.82;;;5.57;;
73264;SDS011;76371;51.008;14.088;2024-02-26T10:42:15;10.77;;;5.70;;
73264;SDS011;76371;51.008;14.088;2024-02-26T10:44:43;8.82;;;5.40;;
73264;SDS011;76371;51.008;14.088;2024-02-26T10:47:10;11.77;;;5.40;;
73264;SDS011;76371;51.008;14.088;2024-02-26T10:49:36;8.35;;;4.88;;
73264;SDS011;76371;51.008;14.088;2024-02-26T10:52:05;8.57;;;5.10;;
73264;SDS011;76371;51.008;14.088;2024-02-26T10:54:31;8.80;;;5.65;;
73264;SDS011;76371;51.008;14.088;2024-02-26T10:56:59;8.38;;;5.15;;
73264;SDS011;76371;51.008;14.088;2024-02-26T10:59:26;8.73;;;4.85;;
73264;SDS011;76371;51.008;14.088;2024-02-26T11:01:51;8.88;;;4.97;;
73264;SDS011;76371;51.008;14.088;2024-02-26T11:04:17;11.93;;;6.13;;
73264;SDS011;76371;51.008;14.088;2024-02-26T11:06:45;7.70;;;5.45;;
73264;SDS011;76371;51.008;14.088;2024-02-26T11:09:15;11.57;;;6.03;;
73264;SDS011;76371;51.008;14.088;2024-02-26T11:11:47;9.25;;;5.25;;
73264;SDS011;76371;51.008;14.088;2024-02-26T11:14:13;9.23;;;5.32;;
73264;SDS011;76371;51.008;14.088;2024-02-26T11:16:39;9.20;;;5.35;;
73264;SDS011;76371;51.008;14.088;2024-02-26T11:19:08;12.05;;;5.60;;
73264;SDS011;76371;51.008;14.088;2024-02-26T11:21:37;12.57;;;5.65;;
73264;SDS011;76371;51.008;14.088;2024-02-26T11:24:07;9.00;;;5.63;;
73264;SDS011;76371;51.008;14.088;2024-02-26T11:26:33;9.52;;;5.93;;
73264;SDS011;76371;51.008;14.088;2024-02-26T11:29:00;10.40;;;5.38;;
73264;SDS011;76371;51.008;14.088;2024-02-26T11:31:26;8.63;;;5.20;;
73264;SDS011;76371;51.008;14.088;2024-02-26T11:33:53;8.70;;;5.53;;
73264;SDS011;76371;51.008;14.088;2024-02-26T11:36:19;9.30;;;4.78;;
73264;SDS011;76371;51.008;14.088;2024-02-26T11:38:46;8.18;;;5.07;;
73264;SDS011;76371;51.008;14.088;2024-02-26T11:41:16;11.27;;;5.00;;
73264;SDS011;76371;51.008;14.088;2024-02-26T11:43:59;8.23;;;5.05;;
73264;SDS011;76371;51.008;14.088;2024-02-26T11:46:30;8.77;;;5.25;;
73264;SDS011;76371;51.008;14.088;2024-02-26T11:49:00;11.05;;;5.82;;
73264;SDS011;76371;51.008;14.088;2024-02-26T11:51:27;9.80;;;5.47;;
73264;SDS011;76371;51.008;14.088;2024-02-26T11:53:53;9.85;;;5.53;;
73264;SDS011;76371;51.008;14.088;2024-02-26T11:59:05;9.38;;;5.05;;
73264;SDS011;76371;51.008;14.088;2024-02-26T12:01:50;8.70;;;4.65;;
73264;SDS011;76371;51.008;14.088;2024-02-26T12:04:24;11.35;;;5.60;;
73264;SDS011;76371;51.008;14.088;2024-02-26T12:07:02;8.68;;;4.80;;
73264;SDS011;76371;51.008;14.088;2024-02-26T12:09:33;8.50;;;5.15;;
73264;SDS011;76371;51.008;14.088;2024-02-26T12:12:02;8.32;;;4.88;;
73264;SDS011;76371;51.008;14.088;2024-02-26T12:14:29;8.55;;;4.95;;
73264;SDS011;76371;51.008;14.088;2024-02-26T12:17:01;7.65;;;5.00;;
73264;SDS011;76371;51.008;14.088;2024-02-26T12:19:40;10.93;;;5.47;;
73264;SDS011;76371;51.008;14.088;2024-02-26T12:22:06;7.22;;;5.20;;
73264;SDS011;76371;51.008;14.088;2024-02-26T12:24:32;14.23;;;5.57;;
73264;SDS011;76371;51.008;14.088;2024-02-26T12:27:01;13.95;;;6.65;;
73264;SDS011;76371;51.008;14.088;2024-02-26T12:29:29;11.43;;;6.22;;
